createdAt,value
2019-01-14T00:00:25.198Z,8.20
2019-01-14T00:02:58.488Z,8.10
2019-01-14T00:05:31.899Z,8.10
2019-01-14T00:08:04.778Z,8.10
2019-01-14T00:10:38.388Z,7.50
2019-01-14T00:13:12.027Z,8.10
2019-01-14T00:15:45.299Z,8.20
2019-01-14T00:18:16.328Z,8.10
2019-01-14T00:20:50.208Z,8.10
2019-01-14T00:23:23.547Z,8.10
2019-01-14T00:25:56.658Z,8.00
2019-01-14T00:28:29.071Z,8.00
2019-01-14T00:31:01.969Z,8.10
2019-01-14T00:33:35.329Z,8.10
2019-01-14T00:36:08.229Z,8.00
2019-01-14T00:38:41.888Z,8.10
2019-01-14T00:41:15.489Z,8.10
2019-01-14T00:43:49.288Z,8.10
2019-01-14T00:46:23.139Z,8.10
2019-01-14T00:48:56.778Z,8.10
2019-01-14T00:51:30.454Z,8.10
2019-01-14T00:54:03.658Z,8.10
2019-01-14T00:56:37.818Z,8.10
2019-01-14T00:59:11.568Z,8.10
2019-01-14T01:01:45.028Z,8.20
2019-01-14T01:04:18.149Z,8.10
2019-01-14T01:06:51.701Z,8.10
2019-01-14T01:09:24.171Z,8.00
2019-01-14T01:11:57.339Z,8.00
2019-01-14T01:14:30.138Z,8.10
2019-01-14T01:17:03.049Z,8.10
2019-01-14T01:19:36.600Z,8.10
2019-01-14T01:22:08.878Z,8.10
2019-01-14T01:24:41.598Z,8.20
2019-01-14T01:27:14.989Z,8.10
2019-01-14T01:29:48.378Z,8.10
2019-01-14T01:32:21.679Z,8.10
2019-01-14T01:34:54.958Z,8.10
2019-01-14T01:37:28.279Z,8.10
2019-01-14T01:40:00.379Z,8.10
2019-01-14T01:42:33.428Z,8.10
2019-01-14T01:45:06.288Z,8.10
2019-01-14T01:47:39.588Z,8.10
2019-01-14T01:50:14.718Z,8.10
2019-01-14T01:52:47.788Z,8.10
2019-01-14T01:55:20.958Z,8.00
2019-01-14T01:57:53.709Z,8.10
2019-01-14T02:00:26.460Z,8.10
2019-01-14T02:02:59.158Z,8.10
2019-01-14T02:05:32.300Z,8.10
2019-01-14T02:08:05.607Z,8.10
2019-01-14T02:10:39.236Z,8.00
2019-01-14T02:13:12.788Z,8.00
2019-01-14T02:15:44.838Z,8.00
2019-01-14T02:18:17.818Z,8.00
2019-01-14T02:20:51.068Z,8.00
2019-01-14T02:23:24.437Z,8.00
2019-01-14T02:25:58.300Z,8.00
2019-01-14T02:28:31.318Z,8.00
2019-01-14T02:31:05.178Z,7.90
2019-01-14T02:33:38.788Z,8.00
2019-01-14T02:36:12.598Z,8.00
2019-01-14T02:39:37.467Z,7.90
2019-01-14T02:42:10.028Z,7.90
2019-01-14T02:44:42.831Z,7.10
2019-01-14T02:47:15.490Z,6.90
2019-01-14T02:49:47.810Z,6.90
2019-01-14T02:52:20.289Z,6.80
2019-01-14T02:54:52.771Z,7.30
2019-01-14T02:57:25.560Z,6.80
2019-01-14T02:59:59.127Z,6.90
2019-01-14T03:02:32.208Z,6.90
2019-01-14T03:05:05.469Z,6.90
2019-01-14T03:07:37.700Z,6.90
2019-01-14T03:10:11.116Z,6.90
2019-01-14T03:12:44.067Z,7.00
2019-01-14T03:15:16.808Z,7.00
2019-01-14T03:17:49.949Z,7.00
2019-01-14T03:20:22.147Z,7.10
2019-01-14T03:22:55.008Z,7.10
2019-01-14T03:25:28.209Z,7.20
2019-01-14T03:28:01.257Z,7.10
2019-01-14T03:30:33.553Z,7.10
2019-01-14T03:33:06.472Z,7.20
2019-01-14T03:35:39.529Z,7.10
2019-01-14T03:38:11.488Z,7.00
2019-01-14T03:40:43.948Z,7.10
2019-01-14T03:43:17.528Z,7.00
2019-01-14T03:45:50.748Z,7.00
2019-01-14T03:48:23.889Z,6.90
2019-01-14T03:50:56.310Z,6.90
2019-01-14T03:53:29.168Z,7.00
2019-01-14T03:56:01.468Z,7.00
2019-01-14T03:58:33.567Z,6.90
2019-01-14T04:01:06.207Z,6.90
2019-01-14T04:03:38.388Z,6.90
2019-01-14T04:06:11.273Z,6.90
2019-01-14T04:08:44.348Z,6.90
2019-01-14T04:11:16.729Z,6.80
2019-01-14T04:13:49.408Z,6.80
2019-01-14T04:16:21.367Z,6.80
2019-01-14T04:18:54.689Z,6.80
2019-01-14T04:21:26.909Z,6.80
2019-01-14T04:23:59.368Z,6.70
2019-01-14T04:26:32.290Z,6.70
2019-01-14T04:29:04.648Z,6.80
2019-01-14T04:31:38.769Z,6.80
2019-01-14T04:34:11.307Z,6.80
2019-01-14T04:36:42.768Z,6.70
2019-01-14T04:39:15.488Z,6.70
2019-01-14T04:41:48.527Z,6.70
2019-01-14T04:44:20.787Z,6.60
2019-01-14T04:46:53.307Z,6.70
2019-01-14T04:49:26.011Z,6.70
2019-01-14T04:51:58.448Z,6.70
2019-01-14T04:54:30.887Z,6.70
2019-01-14T04:57:04.288Z,6.70
2019-01-14T04:59:36.610Z,6.70
2019-01-14T05:02:09.409Z,6.70
2019-01-14T05:04:41.248Z,6.60
2019-01-14T05:07:14.848Z,6.60
2019-01-14T05:09:48.449Z,6.50
2019-01-14T05:12:20.990Z,6.60
2019-01-14T05:14:53.168Z,6.60
2019-01-14T05:17:26.388Z,6.60
2019-01-14T05:19:59.329Z,6.50
2019-01-14T05:22:32.348Z,6.50
2019-01-14T05:25:04.527Z,6.40
2019-01-14T05:27:37.347Z,6.40
2019-01-14T05:30:10.928Z,6.40
2019-01-14T05:32:43.889Z,6.40
2019-01-14T05:35:17.937Z,6.40
2019-01-14T05:37:50.369Z,6.40
2019-01-14T05:40:24.051Z,6.50
2019-01-14T05:42:57.007Z,6.60
2019-01-14T05:45:30.387Z,6.50
2019-01-14T05:48:02.752Z,6.50
2019-01-14T05:50:36.052Z,6.50
2019-01-14T05:53:08.527Z,6.40
2019-01-14T05:55:40.768Z,6.40
2019-01-14T05:58:13.788Z,6.40
2019-01-14T06:00:49.907Z,6.40
2019-01-14T06:03:22.670Z,6.40
2019-01-14T06:05:55.069Z,6.40
2019-01-14T06:08:27.948Z,6.50
2019-01-14T06:11:00.769Z,6.50
2019-01-14T06:13:34.368Z,6.50
2019-01-14T06:16:07.249Z,6.50
2019-01-14T06:18:40.488Z,6.50
2019-01-14T06:21:12.888Z,6.60
2019-01-14T06:23:45.008Z,6.60
2019-01-14T06:26:17.894Z,6.70
2019-01-14T06:28:50.787Z,6.70
2019-01-14T06:31:23.709Z,6.80
2019-01-14T06:33:56.529Z,6.80
2019-01-14T06:36:29.149Z,6.80
2019-01-14T06:39:01.749Z,6.80
2019-01-14T06:41:35.028Z,6.80
2019-01-14T06:44:07.267Z,6.80
2019-01-14T06:46:40.288Z,6.80
2019-01-14T06:49:13.031Z,6.80
2019-01-14T06:51:46.129Z,6.80
2019-01-14T06:54:18.248Z,6.80
2019-01-14T06:56:51.050Z,6.80
2019-01-14T06:59:24.309Z,6.70
2019-01-14T07:01:56.927Z,6.70
2019-01-14T07:04:29.727Z,6.60
2019-01-14T07:07:03.007Z,6.60
2019-01-14T07:09:36.368Z,6.50
2019-01-14T07:12:08.973Z,6.50
2019-01-14T07:14:41.808Z,6.50
2019-01-14T07:17:14.128Z,6.50
2019-01-14T07:19:46.928Z,6.40
2019-01-14T07:22:20.129Z,6.40
2019-01-14T07:24:53.228Z,6.40
2019-01-14T07:27:26.268Z,6.50
2019-01-14T07:29:58.251Z,6.40
2019-01-14T07:32:31.209Z,6.40
2019-01-14T07:35:04.610Z,6.40
2019-01-14T07:37:37.568Z,6.30
2019-01-14T07:40:10.949Z,6.40
2019-01-14T07:42:43.309Z,6.40
2019-01-14T07:45:17.091Z,6.30
2019-01-14T07:47:50.507Z,6.30
2019-01-14T07:50:23.707Z,6.30
2019-01-14T07:52:56.689Z,6.30
2019-01-14T07:55:30.028Z,6.20
2019-01-14T07:58:02.020Z,6.30
2019-01-14T08:00:35.029Z,6.30
2019-01-14T08:03:07.448Z,6.40
2019-01-14T08:05:39.089Z,6.40
2019-01-14T08:08:14.225Z,6.40
2019-01-14T08:10:47.922Z,6.40
2019-01-14T08:13:21.083Z,6.40
2019-01-14T08:15:53.804Z,6.40
2019-01-14T08:18:26.276Z,6.40
2019-01-14T08:20:58.857Z,6.40
2019-01-14T08:23:31.736Z,6.40
2019-01-14T08:26:03.765Z,6.50
2019-01-14T08:28:35.575Z,6.50
2019-01-14T08:31:07.816Z,6.50
2019-01-14T08:33:40.476Z,6.50
2019-01-14T08:36:12.777Z,6.50
2019-01-14T08:38:45.416Z,6.50
2019-01-14T08:41:18.695Z,6.50
2019-01-14T08:43:54.704Z,6.50
2019-01-14T08:46:27.255Z,6.50
2019-01-14T08:49:00.296Z,6.50
2019-01-14T08:51:33.385Z,6.50
2019-01-14T08:54:06.710Z,6.60
2019-01-14T08:56:38.967Z,6.50
2019-01-14T08:59:11.602Z,6.50
2019-01-14T09:01:43.004Z,6.60
2019-01-14T09:04:15.276Z,6.60
2019-01-14T09:06:47.797Z,6.60
2019-01-14T09:09:19.878Z,6.50
2019-01-14T09:11:53.335Z,6.60
2019-01-14T09:14:25.575Z,6.50
2019-01-14T09:16:57.895Z,6.60
2019-01-14T09:19:30.334Z,6.70
2019-01-14T09:22:03.415Z,6.80
2019-01-14T09:24:36.775Z,6.80
2019-01-14T09:27:09.755Z,6.90
2019-01-14T09:29:42.014Z,7.00
2019-01-14T09:32:14.455Z,7.10
2019-01-14T09:34:47.495Z,7.20
2019-01-14T09:37:19.494Z,7.20
2019-01-14T09:39:52.435Z,7.20
2019-01-14T09:42:27.944Z,7.30
2019-01-14T09:44:59.900Z,7.30
2019-01-14T09:47:32.415Z,7.30
2019-01-14T09:50:05.216Z,7.30
2019-01-14T09:52:37.734Z,7.30
2019-01-14T09:55:12.455Z,7.30
2019-01-14T09:57:44.723Z,7.30
2019-01-14T10:00:18.218Z,7.30
2019-01-14T10:02:55.451Z,7.40
2019-01-14T10:05:25.459Z,7.40
2019-01-14T10:07:58.103Z,7.40
2019-01-14T10:10:31.237Z,7.40
2019-01-14T10:13:04.736Z,7.50
2019-01-14T10:15:37.876Z,7.50
2019-01-14T10:18:10.084Z,7.60
2019-01-14T10:20:45.309Z,7.50
2019-01-14T10:23:17.495Z,7.50
2019-01-14T10:25:50.195Z,7.50
2019-01-14T10:28:23.316Z,7.60
2019-01-14T10:30:56.181Z,7.70
2019-01-14T10:33:32.641Z,7.70
2019-01-14T10:36:05.515Z,7.70
2019-01-14T10:38:38.454Z,7.70
2019-01-14T10:41:11.614Z,7.70
2019-01-14T10:43:43.855Z,7.70
2019-01-14T10:46:16.095Z,7.60
2019-01-14T10:48:49.395Z,7.50
2019-01-14T10:51:22.434Z,7.60
2019-01-14T10:53:54.875Z,7.60
2019-01-14T10:56:27.634Z,7.60
2019-01-14T10:59:00.475Z,7.70
2019-01-14T11:01:33.235Z,7.70
2019-01-14T11:04:05.457Z,7.70
2019-01-14T11:06:38.759Z,7.70
2019-01-14T11:09:11.755Z,7.70
2019-01-14T11:11:44.877Z,7.60
2019-01-14T11:14:17.155Z,7.60
2019-01-14T11:16:50.216Z,7.50
2019-01-14T11:19:22.821Z,7.50
2019-01-14T11:21:54.436Z,7.50
2019-01-14T11:24:32.296Z,7.50
2019-01-14T11:27:05.334Z,7.50
2019-01-14T11:29:53.334Z,7.60
2019-01-14T11:32:26.976Z,7.60
2019-01-14T11:34:59.545Z,7.60
2019-01-14T11:37:32.215Z,7.60
2019-01-14T11:40:05.875Z,7.70
2019-01-14T11:42:38.738Z,7.70
2019-01-14T11:45:11.935Z,7.70
2019-01-14T11:47:44.710Z,7.70
2019-01-14T11:50:17.530Z,7.80
2019-01-14T11:52:50.766Z,7.80
2019-01-14T11:55:23.947Z,7.80
2019-01-14T11:57:57.106Z,7.80
2019-01-14T12:00:36.597Z,7.80
2019-01-14T12:03:04.278Z,7.80
2019-01-14T12:05:37.125Z,7.80
2019-01-14T12:08:09.158Z,7.80
2019-01-14T12:10:42.559Z,7.80
2019-01-14T12:13:15.663Z,7.80
2019-01-14T12:15:48.074Z,7.80
2019-01-14T12:18:20.647Z,7.70
2019-01-14T12:20:52.825Z,7.70
2019-01-14T12:23:25.532Z,7.70
2019-01-14T12:25:58.285Z,7.70
2019-01-14T12:28:31.003Z,7.70
2019-01-14T12:31:04.743Z,7.80
2019-01-14T12:33:37.250Z,7.80
2019-01-14T12:36:09.938Z,7.80
2019-01-14T12:38:42.978Z,7.80
2019-01-14T12:41:16.255Z,7.80
2019-01-14T12:43:49.646Z,7.70
2019-01-14T12:46:21.676Z,7.70
2019-01-14T12:48:54.635Z,7.80
2019-01-14T12:51:27.017Z,7.80
2019-01-14T12:54:00.477Z,7.80
2019-01-14T12:56:34.360Z,7.80
2019-01-14T12:59:07.676Z,7.90
2019-01-14T13:01:40.256Z,7.90
2019-01-14T13:04:13.226Z,7.90
2019-01-14T13:06:46.720Z,7.90
2019-01-14T13:09:19.249Z,7.90
2019-01-14T13:11:52.320Z,7.80
2019-01-14T13:14:24.663Z,7.80
2019-01-14T13:16:57.516Z,7.80
2019-01-14T13:19:30.316Z,7.80
2019-01-14T13:22:05.687Z,7.80
2019-01-14T13:24:37.787Z,7.80
2019-01-14T13:27:11.167Z,7.80
2019-01-14T13:29:42.249Z,7.80
2019-01-14T13:32:14.988Z,7.80
2019-01-14T13:34:48.415Z,7.80
2019-01-14T13:37:20.894Z,7.70
2019-01-14T13:39:53.892Z,7.60
2019-01-14T13:42:26.872Z,7.60
2019-01-14T13:44:59.625Z,7.70
2019-01-14T13:47:32.483Z,7.60
2019-01-14T13:50:05.224Z,7.70
2019-01-14T13:52:37.946Z,7.70
2019-01-14T13:55:11.349Z,7.80
2019-01-14T13:57:44.284Z,7.80
2019-01-14T14:00:19.007Z,7.70
2019-01-14T14:02:52.304Z,7.70
2019-01-14T14:05:24.624Z,7.70
2019-01-14T14:07:57.226Z,7.70
2019-01-14T14:10:33.683Z,7.80
2019-01-14T14:13:05.804Z,7.80
2019-01-14T14:15:39.507Z,7.70
2019-01-14T14:18:12.125Z,7.70
2019-01-14T14:20:45.184Z,7.80
2019-01-14T14:23:17.782Z,7.90
2019-01-14T14:25:51.004Z,7.90
2019-01-14T14:28:23.229Z,7.80
2019-01-14T14:30:55.763Z,7.90
2019-01-14T14:33:28.283Z,7.90
2019-01-14T14:36:00.705Z,7.90
2019-01-14T14:38:33.247Z,7.90
2019-01-14T14:41:05.319Z,7.90
2019-01-14T14:43:37.939Z,7.80
2019-01-14T14:46:09.950Z,7.80
2019-01-14T14:48:42.109Z,7.80
2019-01-14T14:51:14.754Z,7.80
2019-01-14T14:53:46.439Z,7.90
2019-01-14T14:56:19.766Z,7.90
2019-01-14T14:58:52.186Z,7.80
2019-01-14T15:01:24.785Z,7.80
2019-01-14T15:03:57.265Z,7.80
2019-01-14T15:06:29.525Z,7.80
2019-01-14T15:09:02.385Z,7.70
2019-01-14T15:11:34.947Z,7.70
2019-01-14T15:14:07.785Z,7.70
2019-01-14T15:16:39.918Z,7.70
2019-01-14T15:19:12.168Z,7.60
2019-01-14T15:21:43.777Z,7.70
2019-01-14T15:24:16.092Z,7.60
2019-01-14T15:26:48.835Z,7.60
2019-01-14T15:29:20.775Z,7.60
2019-01-14T15:31:53.774Z,7.60
2019-01-14T15:34:26.247Z,7.70
2019-01-14T15:36:58.226Z,7.70
2019-01-14T15:39:30.507Z,7.70
2019-01-14T15:42:02.926Z,7.70
2019-01-14T15:44:36.237Z,7.70
2019-01-14T15:47:08.766Z,7.70
2019-01-14T15:49:40.847Z,7.70
2019-01-14T15:52:14.369Z,7.70
2019-01-14T15:54:46.727Z,7.70
2019-01-14T15:57:19.568Z,7.80
2019-01-14T15:59:52.190Z,7.70
2019-01-14T16:02:24.820Z,7.70
2019-01-14T16:04:56.520Z,7.70
2019-01-14T16:07:28.924Z,7.70
2019-01-14T16:10:01.420Z,7.70
2019-01-14T16:12:33.582Z,7.20
2019-01-14T16:15:06.349Z,7.70
2019-01-14T16:17:38.419Z,7.70
2019-01-14T16:20:12.418Z,7.70
2019-01-14T16:22:44.603Z,7.70
2019-01-14T16:25:17.126Z,7.70
2019-01-14T16:27:49.250Z,7.70
2019-01-14T16:30:23.545Z,7.80
2019-01-14T16:32:56.586Z,7.90
2019-01-14T16:35:29.226Z,8.00
2019-01-14T16:38:01.468Z,7.90
2019-01-14T16:40:34.228Z,7.80
2019-01-14T16:43:06.666Z,7.80
2019-01-14T16:45:40.372Z,7.70
2019-01-14T16:48:13.673Z,7.70
2019-01-14T16:50:46.171Z,7.70
2019-01-14T16:53:19.151Z,7.70
2019-01-14T16:55:54.610Z,7.70
2019-01-14T16:58:26.992Z,7.60
2019-01-14T17:01:00.911Z,7.50
2019-01-14T17:03:34.030Z,6.70
2019-01-14T17:06:06.910Z,6.20
2019-01-14T17:08:40.762Z,5.70
2019-01-14T17:11:13.681Z,5.50
2019-01-14T17:13:47.680Z,5.40
2019-01-14T17:16:20.721Z,5.30
2019-01-14T17:18:53.874Z,5.20
2019-01-14T17:21:26.751Z,5.10
2019-01-14T17:23:58.300Z,5.10
2019-01-14T17:26:31.801Z,5.10
2019-01-14T17:29:05.949Z,5.10
2019-01-14T17:31:39.287Z,5.00
2019-01-14T17:34:12.892Z,4.90
2019-01-14T17:36:46.881Z,5.00
2019-01-14T17:39:21.391Z,5.00
2019-01-14T17:41:55.239Z,4.90
2019-01-14T17:44:29.961Z,4.90
2019-01-14T17:47:05.981Z,5.00
2019-01-14T17:49:42.232Z,5.10
2019-01-14T17:52:15.563Z,5.20
2019-01-14T17:54:49.161Z,5.30
2019-01-14T17:57:25.911Z,5.30
2019-01-14T17:59:58.873Z,5.30
2019-01-14T18:02:32.205Z,5.40
2019-01-14T18:05:04.561Z,5.50
2019-01-14T18:07:41.851Z,5.60
2019-01-14T18:10:16.581Z,5.60
2019-01-14T18:12:49.811Z,5.80
2019-01-14T18:15:23.180Z,5.90
2019-01-14T18:17:57.055Z,5.90
2019-01-14T18:20:30.821Z,5.90
2019-01-14T18:23:04.211Z,5.90
2019-01-14T18:25:37.789Z,6.00
2019-01-14T18:28:10.917Z,6.00
2019-01-14T18:30:45.030Z,5.90
2019-01-14T18:33:18.551Z,5.90
2019-01-14T18:35:51.881Z,5.90
2019-01-14T18:38:25.461Z,5.80
2019-01-14T18:40:59.301Z,5.80
2019-01-14T18:43:33.451Z,5.70
2019-01-14T18:46:07.831Z,5.60
2019-01-14T18:48:41.541Z,5.60
2019-01-14T18:51:15.120Z,5.50
2019-01-14T18:53:48.780Z,5.40
2019-01-14T18:56:22.450Z,5.50
2019-01-14T18:58:56.121Z,5.40
2019-01-14T19:01:29.791Z,5.40
2019-01-14T19:04:02.091Z,5.40
2019-01-14T19:06:35.193Z,5.40
2019-01-14T19:09:10.161Z,5.50
2019-01-14T19:11:42.532Z,5.50
2019-01-14T19:14:15.950Z,5.50
2019-01-14T19:16:48.914Z,5.50
2019-01-14T19:19:22.711Z,5.40
2019-01-14T19:21:56.671Z,5.50
2019-01-14T19:24:29.900Z,5.50
2019-01-14T19:27:03.924Z,5.50
2019-01-14T19:29:37.071Z,5.50
2019-01-14T19:32:10.921Z,5.50
2019-01-14T19:34:44.420Z,5.60
2019-01-14T19:37:18.380Z,5.60
2019-01-14T19:39:52.593Z,5.60
2019-01-14T19:42:26.171Z,5.60
2019-01-14T19:44:59.400Z,5.60
2019-01-14T19:47:32.770Z,5.60
2019-01-14T19:50:06.291Z,5.60
2019-01-14T19:52:38.950Z,5.70
2019-01-14T19:55:12.878Z,5.70
2019-01-14T19:57:46.526Z,5.70
2019-01-14T20:00:21.561Z,5.70
2019-01-14T20:02:53.941Z,5.70
2019-01-14T20:05:26.542Z,5.70
2019-01-14T20:07:59.901Z,5.70
2019-01-14T20:10:32.851Z,5.70
2019-01-14T20:13:07.330Z,5.70
2019-01-14T20:15:40.781Z,5.70
2019-01-14T20:18:14.293Z,5.70
2019-01-14T20:20:47.741Z,5.70
2019-01-14T20:23:21.301Z,5.70
2019-01-14T20:25:54.731Z,5.80
2019-01-14T20:28:27.722Z,5.80
2019-01-14T20:31:00.511Z,5.80
2019-01-14T20:33:33.221Z,5.80
2019-01-14T20:36:06.181Z,5.80
2019-01-14T20:38:39.830Z,5.80
2019-01-14T20:41:17.573Z,5.80
2019-01-14T20:43:48.290Z,5.80
2019-01-14T20:46:21.271Z,5.80
2019-01-14T20:48:55.285Z,5.70
2019-01-14T20:51:28.732Z,5.70
2019-01-14T20:54:00.961Z,5.60
2019-01-14T20:56:33.942Z,5.60
2019-01-14T20:59:07.191Z,5.60
2019-01-14T21:01:40.661Z,5.60
2019-01-14T21:04:14.281Z,5.60
2019-01-14T21:06:48.101Z,5.50
2019-01-14T21:09:21.784Z,5.60
2019-01-14T21:11:55.112Z,5.60
2019-01-14T21:14:28.664Z,5.60
2019-01-14T21:17:02.661Z,5.60
2019-01-14T21:19:36.541Z,5.70
2019-01-14T21:22:10.133Z,5.60
2019-01-14T21:24:43.831Z,5.60
2019-01-14T21:27:17.322Z,5.60
2019-01-14T21:29:51.072Z,5.60
2019-01-14T21:32:24.792Z,5.60
2019-01-14T21:34:58.931Z,5.50
2019-01-14T21:37:32.791Z,5.40
2019-01-14T21:40:06.362Z,5.40
2019-01-14T21:42:40.061Z,5.40
2019-01-14T21:45:14.198Z,5.40
2019-01-14T21:47:47.750Z,5.40
2019-01-14T21:50:21.491Z,5.50
2019-01-14T21:52:54.773Z,5.50
2019-01-14T21:55:30.562Z,5.60
2019-01-14T21:58:03.292Z,5.60
2019-01-14T22:00:36.471Z,5.60
2019-01-14T22:03:09.462Z,5.60
2019-01-14T22:05:42.891Z,5.50
2019-01-14T22:08:16.471Z,5.50
2019-01-14T22:10:50.232Z,5.50
2019-01-14T22:13:23.921Z,5.50
2019-01-14T22:15:57.292Z,5.60
2019-01-14T22:18:31.482Z,5.60
2019-01-14T22:21:05.431Z,5.70
2019-01-14T22:23:39.211Z,5.70
2019-01-14T22:26:12.491Z,5.70
2019-01-14T22:28:46.232Z,5.80
2019-01-14T22:31:19.730Z,5.80
2019-01-14T22:33:53.421Z,5.70
2019-01-14T22:36:27.042Z,5.70
2019-01-14T22:39:00.661Z,5.70
2019-01-14T22:41:34.901Z,5.60
2019-01-14T22:44:08.630Z,5.70
2019-01-14T22:46:42.111Z,5.70
2019-01-14T22:49:16.331Z,5.70
2019-01-14T22:51:49.953Z,5.70
2019-01-14T22:54:23.351Z,5.60
2019-01-14T22:56:56.931Z,5.80
2019-01-14T22:59:30.580Z,5.80
2019-01-14T23:02:03.621Z,5.80
2019-01-14T23:04:37.291Z,5.90
2019-01-14T23:07:10.781Z,5.80
2019-01-14T23:09:43.621Z,5.80
2019-01-14T23:12:16.121Z,5.80
2019-01-14T23:14:48.732Z,5.80
2019-01-14T23:17:21.891Z,5.80
2019-01-14T23:19:55.562Z,5.80
2019-01-14T23:22:29.063Z,5.90
2019-01-14T23:25:02.682Z,5.90
2019-01-14T23:27:35.710Z,5.90
2019-01-14T23:30:10.451Z,5.90
2019-01-14T23:32:44.031Z,5.80
2019-01-14T23:35:18.101Z,5.80
2019-01-14T23:37:51.411Z,5.80
2019-01-14T23:40:24.762Z,5.80
2019-01-14T23:42:59.126Z,5.80
2019-01-14T23:45:32.552Z,5.80
2019-01-14T23:48:06.571Z,5.70
2019-01-14T23:50:40.151Z,5.80
2019-01-14T23:53:13.801Z,5.80
2019-01-14T23:55:46.331Z,5.70
2019-01-14T23:58:19.071Z,5.70
